sensor_id;sensor_type;location;lat;lon;timestamp;pressure;altitude;pressure_sealevel;temperature;humidity
58991;BME280;44781;53.444;14.476;2022-12-08T00:01:06;100762.09;;;0.70;75.20
58991;BME280;44781;53.444;14.476;2022-12-08T00:03:33;100762.48;;;0.69;75.30
58991;BME280;44781;53.444;14.476;2022-12-08T00:06:02;100766.63;;;0.69;75.46
58991;BME280;44781;53.444;14.476;2022-12-08T00:08:48;100765.21;;;0.70;75.46
58991;BME280;44781;53.444;14.476;2022-12-08T00:11:34;100761.57;;;0.70;75.46
58991;BME280;44781;53.444;14.476;2022-12-08T00:14:01;100758.66;;;0.69;75.54
58991;BME280;44781;53.444;14.476;2022-12-08T00:16:28;100764.77;;;0.68;75.54
58991;BME280;44781;53.444;14.476;2022-12-08T00:18:55;100764.73;;;0.64;75.41
58991;BME280;44781;53.444;14.476;2022-12-08T00:21:22;100759.57;;;0.58;75.47
58991;BME280;44781;53.444;14.476;2022-12-08T00:23:49;100761.48;;;0.52;75.52
58991;BME280;44781;53.444;14.476;2022-12-08T00:26:16;100764.11;;;0.47;75.57
58991;BME280;44781;53.444;14.476;2022-12-08T00:28:46;100760.12;;;0.41;75.61
58991;BME280;44781;53.444;14.476;2022-12-08T00:31:13;100762.49;;;0.37;75.67
58991;BME280;44781;53.444;14.476;2022-12-08T00:33:40;100764.49;;;0.35;75.62
58991;BME280;44781;53.444;14.476;2022-12-08T00:36:09;100769.91;;;0.34;75.83
58991;BME280;44781;53.444;14.476;2022-12-08T00:38:37;100765.52;;;0.35;75.92
58991;BME280;44781;53.444;14.476;2022-12-08T00:41:14;100769.09;;;0.38;76.06
58991;BME280;44781;53.444;14.476;2022-12-08T00:43:44;100773.06;;;0.38;76.08
58991;BME280;44781;53.444;14.476;2022-12-08T00:46:11;100768.90;;;0.39;76.13
58991;BME280;44781;53.444;14.476;2022-12-08T00:48:38;100769.09;;;0.38;76.12
58991;BME280;44781;53.444;14.476;2022-12-08T00:51:05;100768.95;;;0.37;76.20
58991;BME280;44781;53.444;14.476;2022-12-08T00:53:32;100770.92;;;0.35;76.17
58991;BME280;44781;53.444;14.476;2022-12-08T00:55:59;100770.98;;;0.33;76.14
58991;BME280;44781;53.444;14.476;2022-12-08T00:58:26;100773.37;;;0.29;76.09
58991;BME280;44781;53.444;14.476;2022-12-08T01:00:53;100771.40;;;0.26;76.12
58991;BME280;44781;53.444;14.476;2022-12-08T01:03:20;100767.63;;;0.24;76.18
58991;BME280;44781;53.444;14.476;2022-12-08T01:05:47;100769.17;;;0.25;76.22
58991;BME280;44781;53.444;14.476;2022-12-08T01:08:14;100767.70;;;0.28;76.32
58991;BME280;44781;53.444;14.476;2022-12-08T01:10:41;100765.81;;;0.32;76.36
58991;BME280;44781;53.444;14.476;2022-12-08T01:13:08;100757.11;;;0.32;76.35
58991;BME280;44781;53.444;14.476;2022-12-08T01:15:35;100762.80;;;0.39;76.36
58991;BME280;44781;53.444;14.476;2022-12-08T01:18:02;100765.51;;;0.41;76.32
58991;BME280;44781;53.444;14.476;2022-12-08T01:20:29;100766.50;;;0.43;76.27
58991;BME280;44781;53.444;14.476;2022-12-08T01:22:56;100764.79;;;0.42;76.15
58991;BME280;44781;53.444;14.476;2022-12-08T01:25:23;100757.88;;;0.41;76.22
58991;BME280;44781;53.444;14.476;2022-12-08T01:27:51;100758.48;;;0.38;75.96
58991;BME280;44781;53.444;14.476;2022-12-08T01:30:20;100757.24;;;0.34;75.94
58991;BME280;44781;53.444;14.476;2022-12-08T01:32:47;100759.25;;;0.31;75.86
58991;BME280;44781;53.444;14.476;2022-12-08T01:35:14;100756.48;;;0.30;75.84
58991;BME280;44781;53.444;14.476;2022-12-08T01:37:41;100761.13;;;0.32;75.82
58991;BME280;44781;53.444;14.476;2022-12-08T01:40:08;100761.96;;;0.33;75.90
58991;BME280;44781;53.444;14.476;2022-12-08T01:42:35;100755.65;;;0.34;76.06
58991;BME280;44781;53.444;14.476;2022-12-08T01:45:08;100750.94;;;0.35;75.94
58991;BME280;44781;53.444;14.476;2022-12-08T01:47:45;100756.48;;;0.35;75.99
58991;BME280;44781;53.444;14.476;2022-12-08T01:50:15;100759.10;;;0.35;75.95
58991;BME280;44781;53.444;14.476;2022-12-08T01:52:49;100758.98;;;0.33;75.88
58991;BME280;44781;53.444;14.476;2022-12-08T01:55:23;100753.85;;;0.31;75.71
58991;BME280;44781;53.444;14.476;2022-12-08T01:57:56;100749.80;;;0.27;75.80
58991;BME280;44781;53.444;14.476;2022-12-08T02:00:25;100752.67;;;0.25;75.77
58991;BME280;44781;53.444;14.476;2022-12-08T02:05:28;100744.36;;;0.24;75.90
58991;BME280;44781;53.444;14.476;2022-12-08T02:07:57;100742.41;;;0.25;75.88
58991;BME280;44781;53.444;14.476;2022-12-08T02:10:28;100739.60;;;0.26;76.01
58991;BME280;44781;53.444;14.476;2022-12-08T02:12:57;100737.35;;;0.26;76.05
58991;BME280;44781;53.444;14.476;2022-12-08T02:15:36;100736.67;;;0.25;76.05
58991;BME280;44781;53.444;14.476;2022-12-08T02:23:35;100739.58;;;0.16;75.89
58991;BME280;44781;53.444;14.476;2022-12-08T02:31:42;100730.52;;;0.12;76.04
58991;BME280;44781;53.444;14.476;2022-12-08T02:34:29;100723.58;;;0.12;76.08
58991;BME280;44781;53.444;14.476;2022-12-08T02:37:08;100725.30;;;0.12;76.03
58991;BME280;44781;53.444;14.476;2022-12-08T02:42:36;100726.77;;;0.10;76.18
58991;BME280;44781;53.444;14.476;2022-12-08T02:45:16;100721.48;;;0.07;76.25
58991;BME280;44781;53.444;14.476;2022-12-08T02:47:45;100722.63;;;0.04;76.12
58991;BME280;44781;53.444;14.476;2022-12-08T02:50:14;100725.16;;;0.01;76.19
58991;BME280;44781;53.444;14.476;2022-12-08T02:52:44;100725.58;;;-0.02;76.33
58991;BME280;44781;53.444;14.476;2022-12-08T03:04:08;100713.35;;;0.06;76.88
58991;BME280;44781;53.444;14.476;2022-12-08T03:09:38;100712.95;;;0.08;76.98
58991;BME280;44781;53.444;14.476;2022-12-08T03:14:37;100715.42;;;0.06;77.09
58991;BME280;44781;53.444;14.476;2022-12-08T03:17:06;100717.29;;;0.07;77.20
58991;BME280;44781;53.444;14.476;2022-12-08T03:19:36;100719.27;;;0.10;77.19
58991;BME280;44781;53.444;14.476;2022-12-08T03:22:05;100714.82;;;0.14;77.27
58991;BME280;44781;53.444;14.476;2022-12-08T03:24:38;100711.39;;;0.17;77.24
58991;BME280;44781;53.444;14.476;2022-12-08T03:27:12;100713.36;;;0.21;77.36
58991;BME280;44781;53.444;14.476;2022-12-08T03:29:40;100708.21;;;0.24;77.31
58991;BME280;44781;53.444;14.476;2022-12-08T03:35:00;100699.04;;;0.28;77.37
58991;BME280;44781;53.444;14.476;2022-12-08T03:37:28;100699.37;;;0.29;77.26
58991;BME280;44781;53.444;14.476;2022-12-08T03:39:55;100701.13;;;0.28;77.12
58991;BME280;44781;53.444;14.476;2022-12-08T03:42:22;100697.62;;;0.29;77.12
58991;BME280;44781;53.444;14.476;2022-12-08T03:44:49;100701.17;;;0.32;77.01
58991;BME280;44781;53.444;14.476;2022-12-08T03:47:16;100698.30;;;0.34;76.98
58991;BME280;44781;53.444;14.476;2022-12-08T03:49:43;100691.58;;;0.37;76.95
58991;BME280;44781;53.444;14.476;2022-12-08T03:52:10;100687.30;;;0.41;76.99
58991;BME280;44781;53.444;14.476;2022-12-08T03:54:37;100692.41;;;0.44;77.02
58991;BME280;44781;53.444;14.476;2022-12-08T03:57:04;100689.05;;;0.46;76.98
58991;BME280;44781;53.444;14.476;2022-12-08T03:59:30;100682.80;;;0.45;76.88
58991;BME280;44781;53.444;14.476;2022-12-08T04:01:57;100681.35;;;0.47;76.91
58991;BME280;44781;53.444;14.476;2022-12-08T04:04:25;100682.59;;;0.47;76.80
58991;BME280;44781;53.444;14.476;2022-12-08T04:06:52;100678.27;;;0.46;76.76
58991;BME280;44781;53.444;14.476;2022-12-08T04:09:19;100671.64;;;0.42;76.61
58991;BME280;44781;53.444;14.476;2022-12-08T04:11:46;100666.25;;;0.42;76.57
58991;BME280;44781;53.444;14.476;2022-12-08T04:14:13;100670.49;;;0.45;76.48
58991;BME280;44781;53.444;14.476;2022-12-08T04:16:40;100666.23;;;0.47;76.51
58991;BME280;44781;53.444;14.476;2022-12-08T04:19:07;100664.39;;;0.50;76.50
58991;BME280;44781;53.444;14.476;2022-12-08T04:21:33;100662.18;;;0.53;76.59
58991;BME280;44781;53.444;14.476;2022-12-08T04:24:01;100663.83;;;0.56;76.61
58991;BME280;44781;53.444;14.476;2022-12-08T04:26:28;100660.97;;;0.58;76.56
58991;BME280;44781;53.444;14.476;2022-12-08T04:28:55;100658.50;;;0.59;76.55
58991;BME280;44781;53.444;14.476;2022-12-08T04:31:22;100652.26;;;0.59;76.54
58991;BME280;44781;53.444;14.476;2022-12-08T04:33:49;100643.58;;;0.58;76.56
58991;BME280;44781;53.444;14.476;2022-12-08T04:36:15;100638.23;;;0.57;76.47
58991;BME280;44781;53.444;14.476;2022-12-08T04:38:43;100636.52;;;0.56;76.36
58991;BME280;44781;53.444;14.476;2022-12-08T04:41:09;100633.92;;;0.56;76.36
58991;BME280;44781;53.444;14.476;2022-12-08T04:43:36;100628.98;;;0.58;76.38
58991;BME280;44781;53.444;14.476;2022-12-08T04:46:07;100626.78;;;0.61;76.43
58991;BME280;44781;53.444;14.476;2022-12-08T04:48:39;100623.88;;;0.64;76.51
58991;BME280;44781;53.444;14.476;2022-12-08T04:51:16;100620.29;;;0.68;76.57
58991;BME280;44781;53.444;14.476;2022-12-08T04:53:50;100621.41;;;0.70;76.55
58991;BME280;44781;53.444;14.476;2022-12-08T04:56:18;100625.90;;;0.71;76.54
58991;BME280;44781;53.444;14.476;2022-12-08T04:58:45;100630.77;;;0.71;76.68
58991;BME280;44781;53.444;14.476;2022-12-08T05:01:12;100628.54;;;0.70;76.64
58991;BME280;44781;53.444;14.476;2022-12-08T05:03:44;100624.41;;;0.69;76.57
58991;BME280;44781;53.444;14.476;2022-12-08T05:06:12;100616.10;;;0.68;76.48
58991;BME280;44781;53.444;14.476;2022-12-08T05:08:40;100609.48;;;0.68;76.60
58991;BME280;44781;53.444;14.476;2022-12-08T05:11:11;100599.86;;;0.70;76.69
58991;BME280;44781;53.444;14.476;2022-12-08T05:13:39;100592.06;;;0.73;76.77
58991;BME280;44781;53.444;14.476;2022-12-08T05:16:19;100586.21;;;0.76;76.94
58991;BME280;44781;53.444;14.476;2022-12-08T05:18:46;100582.63;;;0.79;77.02
58991;BME280;44781;53.444;14.476;2022-12-08T05:21:13;100579.06;;;0.82;77.03
58991;BME280;44781;53.444;14.476;2022-12-08T05:23:40;100570.12;;;0.79;77.06
58991;BME280;44781;53.444;14.476;2022-12-08T05:26:07;100574.38;;;0.82;77.04
58991;BME280;44781;53.444;14.476;2022-12-08T05:28:34;100578.77;;;0.80;77.00
58991;BME280;44781;53.444;14.476;2022-12-08T05:31:01;100578.63;;;0.79;77.08
58991;BME280;44781;53.444;14.476;2022-12-08T05:33:28;100579.08;;;0.81;77.11
58991;BME280;44781;53.444;14.476;2022-12-08T05:35:57;100582.79;;;0.85;77.24
58991;BME280;44781;53.444;14.476;2022-12-08T05:38:24;100570.38;;;0.82;77.27
58991;BME280;44781;53.444;14.476;2022-12-08T05:40:51;100580.41;;;0.92;77.31
58991;BME280;44781;53.444;14.476;2022-12-08T05:43:18;100571.60;;;0.95;77.43
58991;BME280;44781;53.444;14.476;2022-12-08T05:45:45;100572.73;;;0.97;77.42
58991;BME280;44781;53.444;14.476;2022-12-08T05:48:12;100560.70;;;0.89;77.39
58991;BME280;44781;53.444;14.476;2022-12-08T05:50:47;100571.79;;;0.99;77.40
58991;BME280;44781;53.444;14.476;2022-12-08T05:53:15;100571.33;;;0.97;77.42
58991;BME280;44781;53.444;14.476;2022-12-08T05:55:43;100570.69;;;0.96;77.29
58991;BME280;44781;53.444;14.476;2022-12-08T05:58:16;100566.68;;;0.96;77.30
58991;BME280;44781;53.444;14.476;2022-12-08T06:00:44;100567.84;;;0.98;77.35
58991;BME280;44781;53.444;14.476;2022-12-08T06:03:13;100572.08;;;1.00;77.39
58991;BME280;44781;53.444;14.476;2022-12-08T06:05:43;100569.70;;;1.03;77.59
58991;BME280;44781;53.444;14.476;2022-12-08T06:08:11;100565.04;;;1.07;77.66
58991;BME280;44781;53.444;14.476;2022-12-08T06:10:43;100559.53;;;1.10;77.71
58991;BME280;44781;53.444;14.476;2022-12-08T06:13:11;100559.30;;;1.11;77.57
58991;BME280;44781;53.444;14.476;2022-12-08T06:15:38;100559.47;;;1.11;77.45
58991;BME280;44781;53.444;14.476;2022-12-08T06:18:06;100559.80;;;1.11;77.43
58991;BME280;44781;53.444;14.476;2022-12-08T06:20:38;100556.54;;;1.11;77.61
58991;BME280;44781;53.444;14.476;2022-12-08T06:23:08;100559.14;;;1.11;77.52
58991;BME280;44781;53.444;14.476;2022-12-08T06:25:36;100559.92;;;1.13;77.57
58991;BME280;44781;53.444;14.476;2022-12-08T06:28:04;100557.21;;;1.15;77.63
58991;BME280;44781;53.444;14.476;2022-12-08T06:30:32;100561.79;;;1.19;77.73
58991;BME280;44781;53.444;14.476;2022-12-08T06:32:59;100562.57;;;1.21;77.77
58991;BME280;44781;53.444;14.476;2022-12-08T06:35:26;100568.73;;;1.24;77.74
58991;BME280;44781;53.444;14.476;2022-12-08T06:37:53;100570.63;;;1.24;77.77
58991;BME280;44781;53.444;14.476;2022-12-08T06:40:20;100574.78;;;1.25;77.82
58991;BME280;44781;53.444;14.476;2022-12-08T06:42:47;100576.91;;;1.24;77.76
58991;BME280;44781;53.444;14.476;2022-12-08T06:45:15;100569.84;;;1.22;77.77
58991;BME280;44781;53.444;14.476;2022-12-08T06:47:45;100567.77;;;1.22;77.89
58991;BME280;44781;53.444;14.476;2022-12-08T06:50:13;100567.66;;;1.24;77.90
58991;BME280;44781;53.444;14.476;2022-12-08T06:52:40;100566.67;;;1.27;77.93
58991;BME280;44781;53.444;14.476;2022-12-08T06:55:08;100564.27;;;1.30;78.00
58991;BME280;44781;53.444;14.476;2022-12-08T06:57:35;100565.54;;;1.33;78.06
58991;BME280;44781;53.444;14.476;2022-12-08T07:00:03;100561.82;;;1.35;78.03
58991;BME280;44781;53.444;14.476;2022-12-08T07:02:31;100556.75;;;1.35;77.91
58991;BME280;44781;53.444;14.476;2022-12-08T07:04:58;100556.22;;;1.36;77.94
58991;BME280;44781;53.444;14.476;2022-12-08T07:07:25;100558.17;;;1.34;77.87
58991;BME280;44781;53.444;14.476;2022-12-08T07:09:54;100561.03;;;1.33;77.87
58991;BME280;44781;53.444;14.476;2022-12-08T07:12:20;100556.17;;;1.33;77.89
58991;BME280;44781;53.444;14.476;2022-12-08T07:14:48;100559.09;;;1.34;77.95
58991;BME280;44781;53.444;14.476;2022-12-08T07:17:15;100561.93;;;1.36;77.95
58991;BME280;44781;53.444;14.476;2022-12-08T07:19:42;100559.56;;;1.39;78.06
58991;BME280;44781;53.444;14.476;2022-12-08T07:22:09;100554.77;;;1.42;78.23
58991;BME280;44781;53.444;14.476;2022-12-08T07:24:35;100551.39;;;1.43;78.10
58991;BME280;44781;53.444;14.476;2022-12-08T07:27:02;100549.25;;;1.44;78.12
58991;BME280;44781;53.444;14.476;2022-12-08T07:29:29;100549.05;;;1.45;78.12
58991;BME280;44781;53.444;14.476;2022-12-08T07:31:56;100550.46;;;1.45;78.11
58991;BME280;44781;53.444;14.476;2022-12-08T07:34:23;100549.15;;;1.43;78.17
58991;BME280;44781;53.444;14.476;2022-12-08T07:36:50;100552.66;;;1.42;78.21
58991;BME280;44781;53.444;14.476;2022-12-08T07:39:17;100550.54;;;1.43;78.14
58991;BME280;44781;53.444;14.476;2022-12-08T07:41:44;100547.00;;;1.44;78.14
58991;BME280;44781;53.444;14.476;2022-12-08T07:44:11;100548.27;;;1.47;78.37
58991;BME280;44781;53.444;14.476;2022-12-08T07:46:38;100542.77;;;1.49;78.45
58991;BME280;44781;53.444;14.476;2022-12-08T07:49:05;100543.02;;;1.52;78.42
58991;BME280;44781;53.444;14.476;2022-12-08T07:51:32;100545.95;;;1.53;78.34
58991;BME280;44781;53.444;14.476;2022-12-08T07:54:00;100541.94;;;1.52;78.37
58991;BME280;44781;53.444;14.476;2022-12-08T07:56:26;100542.11;;;1.53;78.47
58991;BME280;44781;53.444;14.476;2022-12-08T07:58:54;100541.13;;;1.51;78.39
58991;BME280;44781;53.444;14.476;2022-12-08T08:01:26;100540.42;;;1.52;78.39
58991;BME280;44781;53.444;14.476;2022-12-08T08:03:56;100543.81;;;1.54;78.39
58991;BME280;44781;53.444;14.476;2022-12-08T08:06:24;100541.58;;;1.57;78.69
58991;BME280;44781;53.444;14.476;2022-12-08T08:08:50;100539.01;;;1.60;78.64
58991;BME280;44781;53.444;14.476;2022-12-08T08:11:18;100534.00;;;1.64;78.72
58991;BME280;44781;53.444;14.476;2022-12-08T08:13:45;100533.19;;;1.66;78.76
58991;BME280;44781;53.444;14.476;2022-12-08T08:16:12;100535.39;;;1.68;78.72
58991;BME280;44781;53.444;14.476;2022-12-08T08:18:40;100532.40;;;1.68;78.81
58991;BME280;44781;53.444;14.476;2022-12-08T08:21:07;100531.17;;;1.69;78.87
58991;BME280;44781;53.444;14.476;2022-12-08T08:23:34;100530.63;;;1.69;78.77
58991;BME280;44781;53.444;14.476;2022-12-08T08:26:03;100527.39;;;1.71;78.75
58991;BME280;44781;53.444;14.476;2022-12-08T08:28:33;100523.21;;;1.75;78.86
58991;BME280;44781;53.444;14.476;2022-12-08T08:31:00;100524.59;;;1.80;78.94
58991;BME280;44781;53.444;14.476;2022-12-08T08:33:28;100522.46;;;1.85;79.05
58991;BME280;44781;53.444;14.476;2022-12-08T08:35:56;100517.44;;;1.88;79.05
58991;BME280;44781;53.444;14.476;2022-12-08T08:38:23;100520.13;;;1.91;79.05
58991;BME280;44781;53.444;14.476;2022-12-08T08:40:51;100516.04;;;1.93;79.03
58991;BME280;44781;53.444;14.476;2022-12-08T08:43:18;100510.61;;;1.93;78.93
58991;BME280;44781;53.444;14.476;2022-12-08T08:45:58;100510.13;;;1.92;78.98
58991;BME280;44781;53.444;14.476;2022-12-08T08:48:26;100512.55;;;1.92;78.94
58991;BME280;44781;53.444;14.476;2022-12-08T08:50:55;100515.69;;;1.96;79.06
58991;BME280;44781;53.444;14.476;2022-12-08T08:53:22;100519.67;;;2.01;79.15
58991;BME280;44781;53.444;14.476;2022-12-08T08:55:52;100523.14;;;2.05;79.26
58991;BME280;44781;53.444;14.476;2022-12-08T08:58:19;100525.40;;;2.09;79.22
58991;BME280;44781;53.444;14.476;2022-12-08T09:00:46;100528.25;;;2.12;79.36
58991;BME280;44781;53.444;14.476;2022-12-08T09:03:17;100528.33;;;2.14;79.30
58991;BME280;44781;53.444;14.476;2022-12-08T09:05:44;100527.24;;;2.15;79.30
58991;BME280;44781;53.444;14.476;2022-12-08T09:08:12;100527.76;;;2.15;79.33
58991;BME280;44781;53.444;14.476;2022-12-08T09:10:39;100522.66;;;2.16;79.32
58991;BME280;44781;53.444;14.476;2022-12-08T09:13:07;100523.02;;;2.19;79.37
58991;BME280;44781;53.444;14.476;2022-12-08T09:15:34;100524.05;;;2.24;79.45
58991;BME280;44781;53.444;14.476;2022-12-08T09:18:01;100526.31;;;2.28;79.63
58991;BME280;44781;53.444;14.476;2022-12-08T09:20:29;100521.63;;;2.31;79.61
58991;BME280;44781;53.444;14.476;2022-12-08T09:22:56;100520.08;;;2.34;79.76
58991;BME280;44781;53.444;14.476;2022-12-08T09:25:23;100521.52;;;2.38;79.79
58991;BME280;44781;53.444;14.476;2022-12-08T09:27:51;100516.52;;;2.40;79.81
58991;BME280;44781;53.444;14.476;2022-12-08T09:30:18;100512.29;;;2.41;79.82
58991;BME280;44781;53.444;14.476;2022-12-08T09:32:45;100507.83;;;2.43;79.82
58991;BME280;44781;53.444;14.476;2022-12-08T09:35:12;100509.74;;;2.47;79.84
58991;BME280;44781;53.444;14.476;2022-12-08T09:37:39;100505.17;;;2.51;79.88
58991;BME280;44781;53.444;14.476;2022-12-08T09:40:07;100500.27;;;2.56;79.96
58991;BME280;44781;53.444;14.476;2022-12-08T09:43:04;100495.92;;;2.60;79.97
58991;BME280;44781;53.444;14.476;2022-12-08T09:45:34;100494.35;;;2.63;79.97
58991;BME280;44781;53.444;14.476;2022-12-08T09:48:15;100490.94;;;2.65;80.08
58991;BME280;44781;53.444;14.476;2022-12-08T09:50:53;100484.06;;;2.67;80.03
58991;BME280;44781;53.444;14.476;2022-12-08T09:53:33;100478.06;;;2.68;80.07
58991;BME280;44781;53.444;14.476;2022-12-08T09:56:08;100478.13;;;2.70;80.06
58991;BME280;44781;53.444;14.476;2022-12-08T09:58:56;100475.71;;;2.73;80.11
58991;BME280;44781;53.444;14.476;2022-12-08T10:01:31;100469.93;;;2.78;80.21
58991;BME280;44781;53.444;14.476;2022-12-08T10:03:59;100470.35;;;2.84;80.38
58991;BME280;44781;53.444;14.476;2022-12-08T10:06:55;100470.12;;;2.88;80.43
58991;BME280;44781;53.444;14.476;2022-12-08T10:09:40;100467.90;;;2.91;80.38
58991;BME280;44781;53.444;14.476;2022-12-08T10:17:44;100457.80;;;2.98;80.36
58991;BME280;44781;53.444;14.476;2022-12-08T10:20:24;100459.16;;;3.02;80.34
58991;BME280;44781;53.444;14.476;2022-12-08T10:23:20;100454.76;;;3.06;80.46
58991;BME280;44781;53.444;14.476;2022-12-08T10:25:47;100457.78;;;3.12;80.48
58991;BME280;44781;53.444;14.476;2022-12-08T10:28:14;100458.27;;;3.16;80.32
58991;BME280;44781;53.444;14.476;2022-12-08T10:30:41;100458.02;;;3.18;80.21
58991;BME280;44781;53.444;14.476;2022-12-08T10:33:13;100452.24;;;3.18;79.93
58991;BME280;44781;53.444;14.476;2022-12-08T10:35:50;100450.75;;;3.16;79.91
58991;BME280;44781;53.444;14.476;2022-12-08T10:38:33;100452.54;;;3.15;79.92
58991;BME280;44781;53.444;14.476;2022-12-08T10:43:45;100449.47;;;3.18;79.87
58991;BME280;44781;53.444;14.476;2022-12-08T10:46:23;100448.48;;;3.20;79.96
58991;BME280;44781;53.444;14.476;2022-12-08T10:49:10;100451.23;;;3.25;80.09
58991;BME280;44781;53.444;14.476;2022-12-08T10:51:39;100453.36;;;3.27;79.98
58991;BME280;44781;53.444;14.476;2022-12-08T10:56:54;100447.58;;;3.28;79.74
58991;BME280;44781;53.444;14.476;2022-12-08T10:59:22;100446.46;;;3.26;79.58
58991;BME280;44781;53.444;14.476;2022-12-08T11:01:54;100446.44;;;3.23;79.48
58991;BME280;44781;53.444;14.476;2022-12-08T11:04:35;100446.23;;;3.20;79.34
58991;BME280;44781;53.444;14.476;2022-12-08T11:07:05;100445.15;;;3.17;79.20
58991;BME280;44781;53.444;14.476;2022-12-08T11:09:42;100439.92;;;3.16;79.14
58991;BME280;44781;53.444;14.476;2022-12-08T11:12:19;100437.49;;;3.16;79.23
58991;BME280;44781;53.444;14.476;2022-12-08T11:14:48;100443.23;;;3.17;79.12
58991;BME280;44781;53.444;14.476;2022-12-08T11:20:19;100444.10;;;3.17;79.21
58991;BME280;44781;53.444;14.476;2022-12-08T11:22:55;100442.45;;;3.15;79.10
58991;BME280;44781;53.444;14.476;2022-12-08T11:25:28;100442.09;;;3.12;78.86
58991;BME280;44781;53.444;14.476;2022-12-08T11:27:59;100437.56;;;3.08;78.95
58991;BME280;44781;53.444;14.476;2022-12-08T11:30:35;100432.40;;;3.07;78.94
58991;BME280;44781;53.444;14.476;2022-12-08T11:33:24;100435.42;;;3.06;78.91
58991;BME280;44781;53.444;14.476;2022-12-08T11:36:04;100436.45;;;3.06;78.94
58991;BME280;44781;53.444;14.476;2022-12-08T11:38:40;100427.86;;;3.06;79.11
58991;BME280;44781;53.444;14.476;2022-12-08T11:41:15;100429.73;;;3.07;79.24
58991;BME280;44781;53.444;14.476;2022-12-08T11:44:18;100426.20;;;3.08;79.25
58991;BME280;44781;53.444;14.476;2022-12-08T11:47:17;100426.12;;;3.07;79.21
58991;BME280;44781;53.444;14.476;2022-12-08T11:49:46;100426.36;;;3.05;79.30
58991;BME280;44781;53.444;14.476;2022-12-08T11:52:23;100425.09;;;3.06;79.31
58991;BME280;44781;53.444;14.476;2022-12-08T11:57:56;100429.66;;;3.12;79.51
58991;BME280;44781;53.444;14.476;2022-12-08T12:00:23;100432.46;;;3.15;79.47
58991;BME280;44781;53.444;14.476;2022-12-08T12:02:57;100431.45;;;3.19;79.54
58991;BME280;44781;53.444;14.476;2022-12-08T12:08:25;100436.95;;;3.20;79.39
58991;BME280;44781;53.444;14.476;2022-12-08T12:17:04;100431.75;;;3.16;79.42
58991;BME280;44781;53.444;14.476;2022-12-08T12:19:35;100431.30;;;3.18;79.54
58991;BME280;44781;53.444;14.476;2022-12-08T12:22:16;100433.07;;;3.22;79.58
58991;BME280;44781;53.444;14.476;2022-12-08T12:24:48;100430.46;;;3.25;79.51
58991;BME280;44781;53.444;14.476;2022-12-08T12:29:51;100430.27;;;3.28;79.54
58991;BME280;44781;53.444;14.476;2022-12-08T12:32:19;100434.39;;;3.30;79.54
58991;BME280;44781;53.444;14.476;2022-12-08T12:34:59;100432.95;;;3.30;79.51
58991;BME280;44781;53.444;14.476;2022-12-08T12:37:38;100432.50;;;3.29;79.48
58991;BME280;44781;53.444;14.476;2022-12-08T12:45:32;100426.29;;;3.31;79.48
58991;BME280;44781;53.444;14.476;2022-12-08T12:50:50;100426.31;;;3.37;79.70
58991;BME280;44781;53.444;14.476;2022-12-08T12:58:21;100431.90;;;3.40;79.48
58991;BME280;44781;53.444;14.476;2022-12-08T13:00:49;100436.72;;;3.38;79.37
58991;BME280;44781;53.444;14.476;2022-12-08T13:03:39;100433.42;;;3.34;79.21
58991;BME280;44781;53.444;14.476;2022-12-08T13:06:07;100436.12;;;3.33;79.22
58991;BME280;44781;53.444;14.476;2022-12-08T13:08:40;100434.40;;;3.32;79.32
58991;BME280;44781;53.444;14.476;2022-12-08T13:11:17;100434.65;;;3.31;79.40
58991;BME280;44781;53.444;14.476;2022-12-08T13:13:59;100436.11;;;3.34;79.49
58991;BME280;44781;53.444;14.476;2022-12-08T13:16:35;100434.81;;;3.31;79.40
58991;BME280;44781;53.444;14.476;2022-12-08T13:19:09;100432.25;;;3.27;79.29
58991;BME280;44781;53.444;14.476;2022-12-08T13:21:38;100432.09;;;3.23;79.27
58991;BME280;44781;53.444;14.476;2022-12-08T13:29:24;100441.80;;;3.17;79.49
58991;BME280;44781;53.444;14.476;2022-12-08T13:44:44;100450.48;;;3.11;79.68
58991;BME280;44781;53.444;14.476;2022-12-08T13:47:16;100450.27;;;3.09;79.60
58991;BME280;44781;53.444;14.476;2022-12-08T13:49:54;100451.86;;;3.08;79.63
58991;BME280;44781;53.444;14.476;2022-12-08T13:52:35;100444.58;;;3.07;79.56
58991;BME280;44781;53.444;14.476;2022-12-08T13:55:03;100444.73;;;3.08;79.63
58991;BME280;44781;53.444;14.476;2022-12-08T13:57:34;100448.25;;;3.11;79.72
58991;BME280;44781;53.444;14.476;2022-12-08T14:00:12;100450.83;;;3.11;79.76
58991;BME280;44781;53.444;14.476;2022-12-08T14:02:42;100459.18;;;3.12;79.75
58991;BME280;44781;53.444;14.476;2022-12-08T14:05:10;100458.19;;;3.11;79.70
58991;BME280;44781;53.444;14.476;2022-12-08T14:07:38;100455.74;;;3.07;79.61
58991;BME280;44781;53.444;14.476;2022-12-08T14:10:09;100453.66;;;3.03;79.60
58991;BME280;44781;53.444;14.476;2022-12-08T14:12:44;100454.15;;;3.01;79.49
58991;BME280;44781;53.444;14.476;2022-12-08T14:15:14;100450.34;;;3.00;79.58
58991;BME280;44781;53.444;14.476;2022-12-08T14:17:50;100458.16;;;3.01;79.77
58991;BME280;44781;53.444;14.476;2022-12-08T14:20:26;100463.99;;;3.03;79.80
58991;BME280;44781;53.444;14.476;2022-12-08T14:22:54;100464.46;;;3.04;79.89
58991;BME280;44781;53.444;14.476;2022-12-08T14:25:23;100464.60;;;3.05;80.05
58991;BME280;44781;53.444;14.476;2022-12-08T14:27:59;100464.45;;;3.05;79.94
58991;BME280;44781;53.444;14.476;2022-12-08T14:30:32;100471.61;;;3.04;79.95
58991;BME280;44781;53.444;14.476;2022-12-08T14:33:03;100471.55;;;3.02;79.86
58991;BME280;44781;53.444;14.476;2022-12-08T14:35:32;100475.11;;;3.01;79.89
58991;BME280;44781;53.444;14.476;2022-12-08T14:38:05;100476.11;;;3.02;79.96
58991;BME280;44781;53.444;14.476;2022-12-08T14:40:39;100480.05;;;3.03;80.04